Time,TemperatureF,DewpointF,PressureIn,WindDirection,WindDirectionDegrees,WindSpeedMPH,WindSpeedGustMPH,Humidity,HourlyPrecipIn,Conditions,Clouds,dailyrainin,SoftwareType,DateUTC
2013-10-02 00:01:00,55.9,53.3,29.90,NNW,330,0.0,0.0,91,0.00,,,0.00,Wunderground v.1.15,2013-10-02 04:01:00,
2013-10-02 00:06:00,55.7,53.1,29.90,NNW,330,0.0,0.0,91,0.00,,,0.00,Wunderground v.1.15,2013-10-02 04:06:00,
2013-10-02 00:11:00,55.5,52.9,29.90,NNW,330,0.0,0.0,91,0.00,,,0.00,Wunderground v.1.15,2013-10-02 04:11:00,
2013-10-02 00:16:00,55.3,52.7,29.90,NNW,330,0.0,0.0,91,0.00,,,0.00,Wunderground v.1.15,2013-10-02 04:16:00,
2013-10-02 00:21:00,55.3,52.7,29.90,NNW,330,0.0,0.0,91,0.00,,,0.00,Wunderground v.1.15,2013-10-02 04:21:00,
2013-10-02 00:26:00,55.3,52.7,29.90,NNW,330,0.0,0.0,91,0.00,,,0.00,Wunderground v.1.15,2013-10-02 04:26:00,
2013-10-02 00:31:00,55.3,52.7,29.90,NNW,330,0.0,0.0,91,0.00,,,0.00,Wunderground v.1.15,2013-10-02 04:31:00,
2013-10-02 00:36:00,55.3,52.7,29.90,NNW,330,0.0,0.0,91,0.00,,,0.00,Wunderground v.1.15,2013-10-02 04:36:00,
2013-10-02 00:41:00,55.2,52.6,29.90,NNW,330,0.0,0.0,91,0.00,,,0.00,Wunderground v.1.15,2013-10-02 04:41:00,
2013-10-02 00:46:00,55.0,52.4,29.90,NNW,330,0.0,0.0,91,0.00,,,0.00,Wunderground v.1.15,2013-10-02 04:46:00,
2013-10-02 00:51:00,54.9,52.3,29.90,NNW,330,0.0,0.0,91,0.00,,,0.00,Wunderground v.1.15,2013-10-02 04:51:00,
2013-10-02 00:56:00,54.9,52.6,29.90,NNW,330,0.0,0.0,92,0.00,,,0.00,Wunderground v.1.15,2013-10-02 04:56:00,
2013-10-02 01:01:00,54.8,52.5,29.90,NNW,330,0.0,0.0,92,0.00,,,0.00,Wunderground v.1.15,2013-10-02 05:01:00,
2013-10-02 01:06:00,54.6,52.0,29.90,NNW,330,0.0,0.0,91,0.00,,,0.00,Wunderground v.1.15,2013-10-02 05:06:00,
2013-10-02 01:11:00,54.5,52.2,29.90,NNW,330,0.0,0.0,92,0.00,,,0.00,Wunderground v.1.15,2013-10-02 05:11:00,
2013-10-02 01:16:00,54.5,52.2,29.90,NNW,330,0.0,0.0,92,0.00,,,0.00,Wunderground v.1.15,2013-10-02 05:16:00,
2013-10-02 01:21:00,54.5,52.2,29.90,NNW,330,0.0,0.0,92,0.00,,,0.00,Wunderground v.1.15,2013-10-02 05:21:00,
2013-10-02 01:26:00,54.4,52.1,29.90,NNW,330,0.0,0.0,92,0.00,,,0.00,Wunderground v.1.15,2013-10-02 05:26:00,
2013-10-02 01:31:00,54.2,51.9,29.90,NNW,330,0.0,0.0,92,0.00,,,0.00,Wunderground v.1.15,2013-10-02 05:31:00,
2013-10-02 01:36:00,54.1,51.8,29.91,NNW,330,0.0,0.0,92,0.00,,,0.00,Wunderground v.1.15,2013-10-02 05:36:00,
2013-10-02 01:41:00,54.1,51.8,29.91,NNW,330,0.0,0.0,92,0.00,,,0.00,Wunderground v.1.15,2013-10-02 05:41:00,
2013-10-02 01:46:00,53.9,51.6,29.90,NNW,330,0.0,0.0,92,0.00,,,0.00,Wunderground v.1.15,2013-10-02 05:46:00,
2013-10-02 01:51:00,53.7,51.4,29.90,NNW,330,0.0,0.0,92,0.00,,,0.00,Wunderground v.1.15,2013-10-02 05:51:00,
2013-10-02 01:56:00,53.5,51.2,29.90,NNW,330,0.0,0.0,92,0.00,,,0.00,Wunderground v.1.15,2013-10-02 05:56:00,
2013-10-02 02:01:00,53.4,51.1,29.90,NNW,330,0.0,0.0,92,0.00,,,0.00,Wunderground v.1.15,2013-10-02 06:01:00,
2013-10-02 02:06:00,53.3,51.0,29.90,NNW,330,0.0,0.0,92,0.00,,,0.00,Wunderground v.1.15,2013-10-02 06:06:00,
2013-10-02 02:11:00,53.2,50.9,29.89,NNW,330,0.0,0.0,92,0.00,,,0.00,Wunderground v.1.15,2013-10-02 06:11:00,
2013-10-02 02:16:00,53.1,50.8,29.89,NNW,330,0.0,0.0,92,0.00,,,0.00,Wunderground v.1.15,2013-10-02 06:16:00,
2013-10-02 02:21:00,53.0,50.7,29.89,NNW,330,0.0,0.0,92,0.00,,,0.00,Wunderground v.1.15,2013-10-02 06:21:00,
2013-10-02 02:26:00,52.9,50.6,29.89,NNW,330,0.0,0.0,92,0.00,,,0.00,Wunderground v.1.15,2013-10-02 06:26:00,
2013-10-02 02:31:00,52.8,50.5,29.89,NNW,330,0.0,0.0,92,0.00,,,0.00,Wunderground v.1.15,2013-10-02 06:31:00,
2013-10-02 02:36:00,52.7,50.4,29.89,NNW,330,0.0,0.0,92,0.00,,,0.00,Wunderground v.1.15,2013-10-02 06:36:00,
2013-10-02 02:41:00,52.6,50.3,29.89,NNW,330,0.0,0.0,92,0.00,,,0.00,Wunderground v.1.15,2013-10-02 06:41:00,
2013-10-02 02:46:00,52.7,50.7,29.89,NNW,330,0.0,0.0,93,0.00,,,0.00,Wunderground v.1.15,2013-10-02 06:46:00,
2013-10-02 02:51:00,52.6,50.6,29.89,NNW,330,0.0,0.0,93,0.00,,,0.00,Wunderground v.1.15,2013-10-02 06:51:00,
2013-10-02 02:56:00,52.5,50.5,29.89,NNW,330,0.0,0.0,93,0.00,,,0.00,Wunderground v.1.15,2013-10-02 06:56:00,
2013-10-02 03:01:00,52.3,50.3,29.89,NNW,330,0.0,0.0,93,0.00,,,0.00,Wunderground v.1.15,2013-10-02 07:01:00,
2013-10-02 03:06:00,52.2,49.9,29.90,NNW,330,0.0,0.0,92,0.00,,,0.00,Wunderground v.1.15,2013-10-02 07:06:00,
2013-10-02 03:11:00,52.2,50.2,29.90,NNW,330,0.0,0.0,93,0.00,,,0.00,Wunderground v.1.15,2013-10-02 07:11:00,
2013-10-02 03:16:00,52.1,50.1,29.89,NNW,330,0.0,0.0,93,0.00,,,0.00,Wunderground v.1.15,2013-10-02 07:16:00,
2013-10-02 03:21:00,52.0,50.0,29.90,NNW,330,0.0,0.0,93,0.00,,,0.00,Wunderground v.1.15,2013-10-02 07:21:00,
2013-10-02 03:26:00,51.9,49.9,29.90,NNW,330,0.0,0.0,93,0.00,,,0.00,Wunderground v.1.15,2013-10-02 07:26:00,
2013-10-02 03:31:00,51.9,49.9,29.90,NNW,330,0.0,0.0,93,0.00,,,0.00,Wunderground v.1.15,2013-10-02 07:31:00,
2013-10-02 03:36:00,51.7,49.7,29.90,NNW,330,0.0,0.0,93,0.00,,,0.00,Wunderground v.1.15,2013-10-02 07:36:00,
2013-10-02 03:41:00,51.6,49.6,29.90,NNW,330,0.0,0.0,93,0.00,,,0.00,Wunderground v.1.15,2013-10-02 07:41:00,
2013-10-02 03:46:00,51.5,49.5,29.90,NNW,330,0.0,0.0,93,0.00,,,0.00,Wunderground v.1.15,2013-10-02 07:46:00,
2013-10-02 03:51:00,51.4,49.4,29.90,NNW,330,0.0,0.0,93,0.00,,,0.00,Wunderground v.1.15,2013-10-02 07:51:00,
2013-10-02 03:56:00,51.3,49.3,29.90,NNW,330,0.0,0.0,93,0.00,,,0.00,Wunderground v.1.15,2013-10-02 07:56:00,
2013-10-02 04:01:00,51.2,49.2,29.90,NNW,330,0.0,0.0,93,0.00,,,0.00,Wunderground v.1.15,2013-10-02 08:01:00,
2013-10-02 04:06:00,51.2,49.2,29.89,NNW,330,0.0,0.0,93,0.00,,,0.00,Wunderground v.1.15,2013-10-02 08:06:00,
2013-10-02 04:11:00,51.0,49.0,29.89,NNW,330,0.0,0.0,93,0.00,,,0.00,Wunderground v.1.15,2013-10-02 08:11:00,
2013-10-02 04:16:00,50.9,48.9,29.90,NNW,330,0.0,0.0,93,0.00,,,0.00,Wunderground v.1.15,2013-10-02 08:16:00,
2013-10-02 04:21:00,50.7,48.7,29.90,NNW,330,0.0,0.0,93,0.00,,,0.00,Wunderground v.1.15,2013-10-02 08:21:00,
2013-10-02 04:26:00,50.6,48.7,29.89,NNW,330,0.0,0.0,93,0.00,,,0.00,Wunderground v.1.15,2013-10-02 08:26:00,
2013-10-02 04:31:00,50.5,48.6,29.89,NNW,330,0.0,0.0,93,0.00,,,0.00,Wunderground v.1.15,2013-10-02 08:31:00,
2013-10-02 04:36:00,50.3,48.4,29.89,NNW,330,0.0,0.0,93,0.00,,,0.00,Wunderground v.1.15,2013-10-02 08:36:00,
2013-10-02 04:41:00,50.3,48.4,29.89,NNW,330,0.0,0.0,93,0.00,,,0.00,Wunderground v.1.15,2013-10-02 08:41:00,
2013-10-02 04:46:00,50.5,48.6,29.90,NNW,330,0.0,0.0,93,0.00,,,0.00,Wunderground v.1.15,2013-10-02 08:46:00,
2013-10-02 04:51:00,50.6,48.7,29.89,NNW,330,0.0,0.0,93,0.00,,,0.00,Wunderground v.1.15,2013-10-02 08:51:00,
2013-10-02 04:56:00,50.8,48.8,29.89,NNW,330,0.0,0.0,93,0.00,,,0.00,Wunderground v.1.15,2013-10-02 08:56:00,
2013-10-02 05:01:00,50.7,48.7,29.89,NNW,330,0.0,0.0,93,0.00,,,0.00,Wunderground v.1.15,2013-10-02 09:01:00,
2013-10-02 05:06:00,50.6,48.7,29.89,NNW,330,0.0,0.0,93,0.00,,,0.00,Wunderground v.1.15,2013-10-02 09:06:00,
2013-10-02 05:11:00,50.5,48.6,29.89,NNW,330,0.0,0.0,93,0.00,,,0.00,Wunderground v.1.15,2013-10-02 09:11:00,
2013-10-02 05:16:00,50.4,48.5,29.89,NNW,330,0.0,0.0,93,0.00,,,0.00,Wunderground v.1.15,2013-10-02 09:16:00,
2013-10-02 05:21:00,50.3,48.4,29.90,NNW,330,0.0,0.0,93,0.00,,,0.00,Wunderground v.1.15,2013-10-02 09:21:00,
2013-10-02 05:26:00,50.1,48.2,29.90,NNW,330,0.0,0.0,93,0.00,,,0.00,Wunderground v.1.15,2013-10-02 09:26:00,
2013-10-02 05:31:00,50.1,48.2,29.89,NNW,330,0.0,0.0,93,0.00,,,0.00,Wunderground v.1.15,2013-10-02 09:31:00,
2013-10-02 05:36:00,50.1,48.2,29.89,NNW,330,0.0,0.0,93,0.00,,,0.00,Wunderground v.1.15,2013-10-02 09:36:00,
2013-10-02 05:41:00,49.9,48.0,29.89,NNW,330,0.0,0.0,93,0.00,,,0.00,Wunderground v.1.15,2013-10-02 09:41:00,
2013-10-02 05:46:00,49.8,47.9,29.89,NNW,330,0.0,1.0,93,0.00,,,0.00,Wunderground v.1.15,2013-10-02 09:46:00,
2013-10-02 05:51:00,49.9,48.0,29.89,NNW,330,0.0,2.0,93,0.00,,,0.00,Wunderground v.1.15,2013-10-02 09:51:00,
2013-10-02 05:56:00,50.1,48.2,29.90,NNW,330,1.0,4.0,93,0.00,,,0.00,Wunderground v.1.15,2013-10-02 09:56:00,
2013-10-02 06:01:00,50.3,48.6,29.90,NNW,330,0.0,0.0,94,0.00,,,0.00,Wunderground v.1.15,2013-10-02 10:01:00,
2013-10-02 06:06:00,50.1,48.2,29.90,NNW,330,0.0,0.0,93,0.00,,,0.00,Wunderground v.1.15,2013-10-02 10:06:00,
2013-10-02 06:11:00,50.0,48.1,29.90,NNW,330,0.0,0.0,93,0.00,,,0.00,Wunderground v.1.15,2013-10-02 10:11:00,
2013-10-02 06:16:00,49.8,47.9,29.90,NNW,330,0.0,0.0,93,0.00,,,0.00,Wunderground v.1.15,2013-10-02 10:16:00,
2013-10-02 06:21:00,49.7,47.8,29.90,NNW,330,0.0,0.0,93,0.00,,,0.00,Wunderground v.1.15,2013-10-02 10:21:00,
2013-10-02 06:26:00,49.6,47.7,29.90,NNW,330,0.0,0.0,93,0.00,,,0.00,Wunderground v.1.15,2013-10-02 10:26:00,
2013-10-02 06:31:00,49.5,47.6,29.90,NNW,330,0.0,0.0,93,0.00,,,0.00,Wunderground v.1.15,2013-10-02 10:31:00,
2013-10-02 06:36:00,49.4,47.5,29.90,NNW,330,0.0,0.0,93,0.00,,,0.00,Wunderground v.1.15,2013-10-02 10:36:00,
2013-10-02 06:41:00,49.4,47.5,29.90,NNW,330,0.0,0.0,93,0.00,,,0.00,Wunderground v.1.15,2013-10-02 10:41:00,
2013-10-02 06:46:00,49.4,47.5,29.90,NNW,330,0.0,1.0,93,0.00,,,0.00,Wunderground v.1.15,2013-10-02 10:46:00,
2013-10-02 06:51:00,49.6,47.9,29.90,SSW,200,0.0,0.0,94,0.00,,,0.00,Wunderground v.1.15,2013-10-02 10:51:00,
2013-10-02 06:56:00,49.7,48.0,29.90,SSW,213,0.0,1.0,94,0.00,,,0.00,Wunderground v.1.15,2013-10-02 10:56:00,
2013-10-02 07:01:00,49.9,48.2,29.90,SSW,213,0.0,0.0,94,0.00,,,0.00,Wunderground v.1.15,2013-10-02 11:01:00,
2013-10-02 07:06:00,50.2,48.5,29.90,SSW,213,0.0,0.0,94,0.00,,,0.00,Wunderground v.1.15,2013-10-02 11:06:00,
2013-10-02 07:11:00,50.5,48.8,29.90,SSW,213,0.0,0.0,94,0.00,,,0.00,Wunderground v.1.15,2013-10-02 11:11:00,
2013-10-02 07:16:00,50.7,49.0,29.90,SSW,213,0.0,1.0,94,0.00,,,0.00,Wunderground v.1.15,2013-10-02 11:16:00,
2013-10-02 07:21:00,51.1,49.4,29.90,SSW,213,0.0,0.0,94,0.00,,,0.00,Wunderground v.1.15,2013-10-02 11:21:00,
2013-10-02 07:26:00,51.5,49.8,29.90,SSW,213,0.0,2.0,94,0.00,,,0.00,Wunderground v.1.15,2013-10-02 11:26:00,
2013-10-02 07:31:00,52.3,50.6,29.91,SSW,213,3.0,4.0,94,0.00,,,0.00,Wunderground v.1.15,2013-10-02 11:31:00,
2013-10-02 07:36:00,53.6,51.9,29.91,SSW,213,0.0,4.0,94,0.00,,,0.00,Wunderground v.1.15,2013-10-02 11:36:00,
2013-10-02 07:41:00,54.2,52.5,29.91,SSW,213,3.0,4.0,94,0.00,,,0.00,Wunderground v.1.15,2013-10-02 11:41:00,
2013-10-02 07:46:00,54.9,53.2,29.90,WSW,243,0.0,5.0,94,0.00,,,0.00,Wunderground v.1.15,2013-10-02 11:46:00,
2013-10-02 07:51:00,55.4,53.7,29.90,SSW,210,0.0,1.0,94,0.00,,,0.00,Wunderground v.1.15,2013-10-02 11:51:00,
2013-10-02 07:56:00,55.9,54.2,29.91,SSW,207,0.0,4.0,94,0.00,,,0.00,Wunderground v.1.15,2013-10-02 11:56:00,
2013-10-02 08:01:00,56.4,54.7,29.90,West,277,1.0,3.0,94,0.00,,,0.00,Wunderground v.1.15,2013-10-02 12:01:00,
2013-10-02 08:06:00,56.8,55.1,29.90,SW,232,4.0,7.0,94,0.00,,,0.00,Wunderground v.1.15,2013-10-02 12:06:00,
2013-10-02 08:11:00,57.4,55.7,29.90,SW,217,0.0,2.0,94,0.00,,,0.00,Wunderground v.1.15,2013-10-02 12:11:00,
2013-10-02 08:16:00,57.7,55.7,29.90,WSW,245,0.0,5.0,93,0.00,,,0.00,Wunderground v.1.15,2013-10-02 12:16:00,
2013-10-02 08:21:00,57.8,55.2,29.90,WSW,250,0.0,5.0,91,0.00,,,0.00,Wunderground v.1.15,2013-10-02 12:21:00,
2013-10-02 08:26:00,58.0,55.1,29.91,WSW,251,0.0,5.0,90,0.00,,,0.00,Wunderground v.1.15,2013-10-02 12:26:00,
2013-10-02 08:31:00,58.7,55.8,29.90,WSW,251,0.0,3.0,90,0.00,,,0.00,Wunderground v.1.15,2013-10-02 12:31:00,
2013-10-02 08:36:00,59.5,56.3,29.90,WSW,250,0.0,4.0,89,0.00,,,0.00,Wunderground v.1.15,2013-10-02 12:36:00,
2013-10-02 08:41:00,60.3,56.7,29.90,SW,219,0.0,4.0,88,0.00,,,0.00,Wunderground v.1.15,2013-10-02 12:41:00,
2013-10-02 08:46:00,61.3,57.4,29.90,WSW,243,0.0,4.0,87,0.00,,,0.00,Wunderground v.1.15,2013-10-02 12:46:00,
2013-10-02 08:51:00,62.1,57.2,29.90,SW,224,1.0,2.0,84,0.00,,,0.00,Wunderground v.1.15,2013-10-02 12:51:00,
2013-10-02 08:56:00,63.1,57.5,29.90,SW,233,0.0,4.0,82,0.00,,,0.00,Wunderground v.1.15,2013-10-02 12:56:00,
2013-10-02 09:01:00,63.7,57.4,29.90,West,267,3.0,5.0,80,0.00,,,0.00,Wunderground v.1.15,2013-10-02 13:01:00,
2013-10-02 09:06:00,64.4,57.7,29.90,WNW,287,4.0,5.0,79,0.00,,,0.00,Wunderground v.1.15,2013-10-02 13:06:00,
2013-10-02 09:11:00,64.9,57.5,29.90,WSW,245,1.0,5.0,77,0.00,,,0.00,Wunderground v.1.15,2013-10-02 13:11:00,
2013-10-02 09:16:00,65.5,57.7,29.90,SW,234,0.0,6.0,76,0.00,,,0.00,Wunderground v.1.15,2013-10-02 13:16:00,
2013-10-02 09:21:00,65.9,57.7,29.90,WSW,244,5.0,6.0,75,0.00,,,0.00,Wunderground v.1.15,2013-10-02 13:21:00,
2013-10-02 09:26:00,66.3,58.1,29.90,West,260,6.0,8.0,75,0.00,,,0.00,Wunderground v.1.15,2013-10-02 13:26:00,
2013-10-02 09:31:00,66.6,58.1,29.89,SW,224,6.0,7.0,74,0.00,,,0.00,Wunderground v.1.15,2013-10-02 13:31:00,
2013-10-02 09:36:00,66.9,58.0,29.90,South,187,3.0,9.0,73,0.00,,,0.00,Wunderground v.1.15,2013-10-02 13:36:00,
2013-10-02 09:41:00,67.4,58.4,29.90,SSW,195,2.0,7.0,73,0.00,,,0.00,Wunderground v.1.15,2013-10-02 13:41:00,
2013-10-02 09:46:00,67.9,58.5,29.89,SW,216,0.0,7.0,72,0.00,,,0.00,Wunderground v.1.15,2013-10-02 13:46:00,
2013-10-02 09:51:00,68.5,59.5,29.89,WSW,250,6.0,6.0,73,0.00,,,0.00,Wunderground v.1.15,2013-10-02 13:51:00,
2013-10-02 09:56:00,68.8,59.0,29.89,WSW,240,3.0,9.0,71,0.00,,,0.00,Wunderground v.1.15,2013-10-02 13:56:00,
2013-10-02 10:01:00,68.9,59.1,29.89,WSW,251,4.0,6.0,71,0.00,,,0.00,Wunderground v.1.15,2013-10-02 14:01:00,
2013-10-02 10:06:00,69.2,59.4,29.90,SW,236,3.0,6.0,71,0.00,,,0.00,Wunderground v.1.15,2013-10-02 14:06:00,
2013-10-02 10:11:00,69.7,59.9,29.90,WNW,287,2.0,4.0,71,0.00,,,0.00,Wunderground v.1.15,2013-10-02 14:11:00,
2013-10-02 10:16:00,70.3,59.6,29.89,WSW,238,4.0,7.0,69,0.00,,,0.00,Wunderground v.1.15,2013-10-02 14:16:00,
2013-10-02 10:21:00,70.7,60.0,29.89,SW,221,1.0,5.0,69,0.00,,,0.00,Wunderground v.1.15,2013-10-02 14:21:00,
2013-10-02 10:26:00,71.1,60.4,29.89,NW,304,3.0,9.0,69,0.00,,,0.00,Wunderground v.1.15,2013-10-02 14:26:00,
2013-10-02 10:31:00,71.9,61.6,29.89,West,277,3.0,7.0,70,0.00,,,0.00,Wunderground v.1.15,2013-10-02 14:31:00,
2013-10-02 10:36:00,72.6,60.6,29.89,West,275,0.0,10.0,66,0.00,,,0.00,Wunderground v.1.15,2013-10-02 14:36:00,
2013-10-02 10:41:00,72.7,60.3,29.88,WNW,286,7.0,9.0,65,0.00,,,0.00,Wunderground v.1.15,2013-10-02 14:41:00,
2013-10-02 10:46:00,72.8,60.8,29.89,WNW,293,1.0,9.0,66,0.00,,,0.00,Wunderground v.1.15,2013-10-02 14:46:00,
2013-10-02 10:51:00,73.1,60.2,29.88,WSW,242,7.0,7.0,64,0.00,,,0.00,Wunderground v.1.15,2013-10-02 14:51:00,
2013-10-02 10:56:00,73.5,60.6,29.88,WNW,294,3.0,10.0,64,0.00,,,0.00,Wunderground v.1.15,2013-10-02 14:56:00,
2013-10-02 11:01:00,73.9,60.5,29.88,South,190,0.0,7.0,63,0.00,,,0.00,Wunderground v.1.15,2013-10-02 15:01:00,
2013-10-02 11:06:00,74.2,60.8,29.88,West,270,5.0,13.0,63,0.00,,,0.00,Wunderground v.1.15,2013-10-02 15:06:00,
2013-10-02 11:11:00,74.5,60.2,29.88,NW,315,4.0,12.0,61,0.00,,,0.00,Wunderground v.1.15,2013-10-02 15:11:00,
2013-10-02 11:16:00,75.0,60.6,29.87,NW,307,2.0,12.0,61,0.00,,,0.00,Wunderground v.1.15,2013-10-02 15:16:00,
2013-10-02 11:21:00,75.6,60.7,29.87,NW,313,4.0,7.0,60,0.00,,,0.00,Wunderground v.1.15,2013-10-02 15:21:00,
2013-10-02 11:26:00,76.0,60.6,29.87,WNW,302,3.0,13.0,59,0.00,,,0.00,Wunderground v.1.15,2013-10-02 15:26:00,
2013-10-02 11:31:00,75.9,60.1,29.87,WSW,246,0.0,7.0,58,0.00,,,0.00,Wunderground v.1.15,2013-10-02 15:31:00,
2013-10-02 11:33:00,75.9,60.1,29.87,West,269,10.0,13.0,58,0.00,,,0.00,Wunderground v.1.15,2013-10-02 15:33:00,
2013-10-02 11:38:00,75.8,60.0,29.88,WNW,300,4.0,13.0,58,0.00,,,0.00,Wunderground v.1.15,2013-10-02 15:38:00,
2013-10-02 11:43:00,76.2,60.3,29.87,NNW,330,8.0,8.0,58,0.00,,,0.00,Wunderground v.1.15,2013-10-02 15:43:00,
2013-10-02 11:48:00,76.4,60.5,29.87,NW,318,0.0,12.0,58,0.00,,,0.00,Wunderground v.1.15,2013-10-02 15:48:00,
2013-10-02 11:53:00,76.8,60.4,29.88,WSW,248,7.0,8.0,57,0.00,,,0.00,Wunderground v.1.15,2013-10-02 15:53:00,
2013-10-02 11:58:00,76.9,60.5,29.87,WNW,300,0.0,13.0,57,0.00,,,0.00,Wunderground v.1.15,2013-10-02 15:58:00,
2013-10-02 12:03:00,77.2,60.8,29.87,WNW,300,3.0,10.0,57,0.00,,,0.00,Wunderground v.1.15,2013-10-02 16:03:00,
2013-10-02 12:08:00,77.3,60.9,29.87,SW,218,2.0,12.0,57,0.00,,,0.00,Wunderground v.1.15,2013-10-02 16:08:00,
2013-10-02 12:13:00,77.3,60.4,29.88,WNW,294,5.0,16.0,56,0.00,,,0.00,Wunderground v.1.15,2013-10-02 16:13:00,
2013-10-02 12:18:00,77.5,61.1,29.87,West,263,0.0,16.0,57,0.00,,,0.00,Wunderground v.1.15,2013-10-02 16:18:00,
2013-10-02 12:23:00,78.1,61.6,29.87,NW,311,5.0,10.0,57,0.00,,,0.00,Wunderground v.1.15,2013-10-02 16:23:00,
2013-10-02 12:28:00,78.2,59.7,29.87,NNW,331,4.0,18.0,53,0.00,,,0.00,Wunderground v.1.15,2013-10-02 16:28:00,
2013-10-02 12:33:00,78.2,59.7,29.87,West,279,12.0,16.0,53,0.00,,,0.00,Wunderground v.1.15,2013-10-02 16:33:00,
2013-10-02 12:38:00,78.5,59.9,29.87,NW,315,5.0,16.0,53,0.00,,,0.00,Wunderground v.1.15,2013-10-02 16:38:00,
2013-10-02 12:43:00,78.9,59.8,29.88,WNW,303,11.0,13.0,52,0.00,,,0.00,Wunderground v.1.15,2013-10-02 16:43:00,
2013-10-02 12:48:00,78.8,60.2,29.87,West,261,4.0,14.0,53,0.00,,,0.00,Wunderground v.1.15,2013-10-02 16:48:00,
2013-10-02 12:53:00,78.7,59.6,29.87,West,268,2.0,12.0,52,0.00,,,0.00,Wunderground v.1.15,2013-10-02 16:53:00,
2013-10-02 12:58:00,79.1,60.5,29.87,NW,315,7.0,12.0,53,0.00,,,0.00,Wunderground v.1.15,2013-10-02 16:58:00,
2013-10-02 13:03:00,78.8,59.7,29.87,WNW,300,2.0,15.0,52,0.00,,,0.00,Wunderground v.1.15,2013-10-02 17:03:00,
2013-10-02 13:08:00,78.7,60.1,29.87,NW,315,8.0,15.0,53,0.00,,,0.00,Wunderground v.1.15,2013-10-02 17:08:00,
2013-10-02 13:13:00,78.7,60.1,29.86,WSW,254,2.0,16.0,53,0.00,,,0.00,Wunderground v.1.15,2013-10-02 17:13:00,
2013-10-02 13:18:00,78.7,60.1,29.86,West,279,9.0,17.0,53,0.00,,,0.00,Wunderground v.1.15,2013-10-02 17:18:00,
2013-10-02 13:23:00,78.7,60.1,29.86,WNW,290,3.0,14.0,53,0.00,,,0.00,Wunderground v.1.15,2013-10-02 17:23:00,
2013-10-02 13:28:00,78.9,60.8,29.86,WNW,298,7.0,14.0,54,0.00,,,0.00,Wunderground v.1.15,2013-10-02 17:28:00,
2013-10-02 13:33:00,79.1,61.0,29.86,WNW,287,0.0,17.0,54,0.00,,,0.00,Wunderground v.1.15,2013-10-02 17:33:00,
2013-10-02 13:38:00,79.5,60.3,29.85,SW,220,6.0,17.0,52,0.00,,,0.00,Wunderground v.1.15,2013-10-02 17:38:00,
2013-10-02 13:43:00,79.3,60.7,29.85,NW,314,10.0,11.0,53,0.00,,,0.00,Wunderground v.1.15,2013-10-02 17:43:00,
2013-10-02 13:48:00,79.3,60.7,29.85,WNW,302,7.0,13.0,53,0.00,,,0.00,Wunderground v.1.15,2013-10-02 17:48:00,
2013-10-02 13:53:00,79.3,60.7,29.85,NW,305,5.0,13.0,53,0.00,,,0.00,Wunderground v.1.15,2013-10-02 17:53:00,
2013-10-02 13:58:00,79.3,60.1,29.85,West,280,5.0,15.0,52,0.00,,,0.00,Wunderground v.1.15,2013-10-02 17:58:00,
2013-10-02 14:03:00,79.4,60.8,29.85,WSW,253,9.0,13.0,53,0.00,,,0.00,Wunderground v.1.15,2013-10-02 18:03:00,
2013-10-02 14:08:00,79.6,59.9,29.84,WNW,300,7.0,19.0,51,0.00,,,0.00,Wunderground v.1.15,2013-10-02 18:08:00,
2013-10-02 14:13:00,79.8,60.1,29.85,WNW,294,13.0,15.0,51,0.00,,,0.00,Wunderground v.1.15,2013-10-02 18:13:00,
2013-10-02 14:18:00,80.1,60.9,29.84,WNW,302,1.0,17.0,52,0.00,,,0.00,Wunderground v.1.15,2013-10-02 18:18:00,
2013-10-02 14:23:00,80.3,60.5,29.84,West,260,5.0,16.0,51,0.00,,,0.00,Wunderground v.1.15,2013-10-02 18:23:00,
2013-10-02 14:28:00,80.6,61.3,29.84,WSW,258,1.0,16.0,52,0.00,,,0.00,Wunderground v.1.15,2013-10-02 18:28:00,
2013-10-02 14:33:00,81.1,60.7,29.84,NNW,336,7.0,14.0,50,0.00,,,0.00,Wunderground v.1.15,2013-10-02 18:33:00,
2013-10-02 14:38:00,80.9,60.5,29.84,NW,309,2.0,17.0,50,0.00,,,0.00,Wunderground v.1.15,2013-10-02 18:38:00,
2013-10-02 14:43:00,81.0,61.2,29.84,WNW,294,9.0,15.0,51,0.00,,,0.00,Wunderground v.1.15,2013-10-02 18:43:00,
2013-10-02 14:48:00,81.2,60.8,29.84,West,271,2.0,15.0,50,0.00,,,0.00,Wunderground v.1.15,2013-10-02 18:48:00,
2013-10-02 14:53:00,81.3,60.9,29.84,SW,226,4.0,14.0,50,0.00,,,0.00,Wunderground v.1.15,2013-10-02 18:53:00,
2013-10-02 14:58:00,81.0,61.2,29.84,WNW,298,0.0,14.0,51,0.00,,,0.00,Wunderground v.1.15,2013-10-02 18:58:00,
2013-10-02 15:03:00,80.7,60.9,29.84,WNW,290,6.0,12.0,51,0.00,,,0.00,Wunderground v.1.15,2013-10-02 19:03:00,
2013-10-02 15:08:00,80.1,60.9,29.84,SW,226,2.0,12.0,52,0.00,,,0.00,Wunderground v.1.15,2013-10-02 19:08:00,
2013-10-02 15:13:00,79.5,60.3,29.84,NNW,338,2.0,12.0,52,0.00,,,0.00,Wunderground v.1.15,2013-10-02 19:13:00,
2013-10-02 15:18:00,79.3,59.6,29.84,NW,316,4.0,14.0,51,0.00,,,0.00,Wunderground v.1.15,2013-10-02 19:18:00,
2013-10-02 15:23:00,79.3,59.6,29.84,NW,319,12.0,14.0,51,0.00,,,0.00,Wunderground v.1.15,2013-10-02 19:23:00,
2013-10-02 15:28:00,79.7,60.0,29.84,West,266,9.0,14.0,51,0.00,,,0.00,Wunderground v.1.15,2013-10-02 19:28:00,
2013-10-02 15:33:00,79.5,59.8,29.84,NW,307,10.0,13.0,51,0.00,,,0.00,Wunderground v.1.15,2013-10-02 19:33:00,
2013-10-02 15:38:00,79.3,59.6,29.84,West,271,9.0,17.0,51,0.00,,,0.00,Wunderground v.1.15,2013-10-02 19:38:00,
2013-10-02 15:43:00,79.6,59.3,29.84,NW,309,6.0,13.0,50,0.00,,,0.00,Wunderground v.1.15,2013-10-02 19:43:00,
2013-10-02 15:48:00,80.0,59.7,29.84,West,281,1.0,16.0,50,0.00,,,0.00,Wunderground v.1.15,2013-10-02 19:48:00,
2013-10-02 15:53:00,80.0,59.7,29.84,WNW,300,9.0,13.0,50,0.00,,,0.00,Wunderground v.1.15,2013-10-02 19:53:00,
2013-10-02 15:58:00,79.7,60.0,29.84,NW,316,11.0,13.0,51,0.00,,,0.00,Wunderground v.1.15,2013-10-02 19:58:00,
2013-10-02 16:03:00,79.3,59.6,29.85,West,273,2.0,10.0,51,0.00,,,0.00,Wunderground v.1.15,2013-10-02 20:03:00,
2013-10-02 16:08:00,78.8,59.7,29.84,NW,304,2.0,14.0,52,0.00,,,0.00,Wunderground v.1.15,2013-10-02 20:08:00,
2013-10-02 16:13:00,78.7,59.6,29.84,NW,304,4.0,10.0,52,0.00,,,0.00,Wunderground v.1.15,2013-10-02 20:13:00,
2013-10-02 16:18:00,79.0,59.3,29.84,NNW,338,11.0,14.0,51,0.00,,,0.00,Wunderground v.1.15,2013-10-02 20:18:00,
2013-10-02 16:23:00,79.1,59.4,29.84,WNW,296,14.0,14.0,51,0.00,,,0.00,Wunderground v.1.15,2013-10-02 20:23:00,
2013-10-02 16:28:00,78.8,59.1,29.84,NNW,327,3.0,14.0,51,0.00,,,0.00,Wunderground v.1.15,2013-10-02 20:28:00,
2013-10-02 16:33:00,78.7,59.0,29.84,West,281,6.0,14.0,51,0.00,,,0.00,Wunderground v.1.15,2013-10-02 20:33:00,
2013-10-02 16:38:00,78.7,59.0,29.84,WNW,293,0.0,14.0,51,0.00,,,0.00,Wunderground v.1.15,2013-10-02 20:38:00,
2013-10-02 16:43:00,78.8,59.1,29.84,WNW,290,0.0,18.0,51,0.00,,,0.00,Wunderground v.1.15,2013-10-02 20:43:00,
2013-10-02 16:48:00,78.7,59.0,29.84,West,267,3.0,18.0,51,0.00,,,0.00,Wunderground v.1.15,2013-10-02 20:48:00,
2013-10-02 16:53:00,78.1,59.0,29.84,WNW,284,0.0,16.0,52,0.00,,,0.00,Wunderground v.1.15,2013-10-02 20:53:00,
2013-10-02 16:58:00,77.5,59.0,29.84,WNW,297,4.0,16.0,53,0.00,,,0.00,Wunderground v.1.15,2013-10-02 20:58:00,
2013-10-02 17:03:00,77.1,58.6,29.85,NW,304,0.0,8.0,53,0.00,,,0.00,Wunderground v.1.15,2013-10-02 21:03:00,
2013-10-02 17:08:00,76.9,59.0,29.85,NW,306,11.0,12.0,54,0.00,,,0.00,Wunderground v.1.15,2013-10-02 21:08:00,
2013-10-02 17:13:00,76.7,58.8,29.85,WSW,257,1.0,11.0,54,0.00,,,0.00,Wunderground v.1.15,2013-10-02 21:13:00,
2013-10-02 17:18:00,76.6,59.7,29.85,WNW,284,1.0,11.0,56,0.00,,,0.00,Wunderground v.1.15,2013-10-02 21:18:00,
2013-10-02 17:23:00,76.4,59.5,29.85,NW,309,0.0,5.0,56,0.00,,,0.00,Wunderground v.1.15,2013-10-02 21:23:00,
2013-10-02 17:28:00,76.2,59.4,29.85,WNW,288,1.0,8.0,56,0.00,,,0.00,Wunderground v.1.15,2013-10-02 21:28:00,
2013-10-02 17:33:00,76.0,59.7,29.85,WNW,299,6.0,9.0,57,0.00,,,0.00,Wunderground v.1.15,2013-10-02 21:33:00,
2013-10-02 17:38:00,75.7,59.4,29.85,WNW,299,2.0,9.0,57,0.00,,,0.00,Wunderground v.1.15,2013-10-02 21:38:00,
2013-10-02 17:43:00,75.4,59.6,29.86,WNW,302,5.0,10.0,58,0.00,,,0.00,Wunderground v.1.15,2013-10-02 21:43:00,
2013-10-02 17:48:00,75.1,59.3,29.86,WSW,238,5.0,11.0,58,0.00,,,0.00,Wunderground v.1.15,2013-10-02 21:48:00,
2013-10-02 17:53:00,74.9,59.6,29.86,WNW,283,3.0,6.0,59,0.00,,,0.00,Wunderground v.1.15,2013-10-02 21:53:00,
2013-10-02 17:58:00,74.6,59.3,29.86,West,279,3.0,7.0,59,0.00,,,0.00,Wunderground v.1.15,2013-10-02 21:58:00,
2013-10-02 18:03:00,74.3,59.5,29.86,West,281,2.0,9.0,60,0.00,,,0.00,Wunderground v.1.15,2013-10-02 22:03:00,
2013-10-02 18:08:00,74.1,59.8,29.86,West,265,0.0,9.0,61,0.00,,,0.00,Wunderground v.1.15,2013-10-02 22:08:00,
2013-10-02 18:13:00,73.7,59.9,29.86,West,265,0.0,3.0,62,0.00,,,0.00,Wunderground v.1.15,2013-10-02 22:13:00,
2013-10-02 18:18:00,73.4,59.6,29.86,WNW,299,0.0,4.0,62,0.00,,,0.00,Wunderground v.1.15,2013-10-02 22:18:00,
2013-10-02 18:23:00,73.0,59.7,29.87,SW,236,1.0,1.0,63,0.00,,,0.00,Wunderground v.1.15,2013-10-02 22:23:00,
2013-10-02 18:28:00,72.7,59.8,29.87,West,260,0.0,4.0,64,0.00,,,0.00,Wunderground v.1.15,2013-10-02 22:28:00,
2013-10-02 18:33:00,72.4,59.5,29.87,WSW,240,2.0,5.0,64,0.00,,,0.00,Wunderground v.1.15,2013-10-02 22:33:00,
2013-10-02 18:39:00,72.2,59.8,29.87,West,275,0.0,5.0,65,0.00,,,0.00,Wunderground v.1.15,2013-10-02 22:39:00,
2013-10-02 18:44:00,71.9,59.5,29.88,WSW,250,0.0,4.0,65,0.00,,,0.00,Wunderground v.1.15,2013-10-02 22:44:00,
2013-10-02 18:49:00,71.6,59.6,29.87,West,272,1.0,6.0,66,0.00,,,0.00,Wunderground v.1.15,2013-10-02 22:49:00,
2013-10-02 18:54:00,71.3,59.8,29.88,West,264,0.0,4.0,67,0.00,,,0.00,Wunderground v.1.15,2013-10-02 22:54:00,
2013-10-02 18:59:00,71.0,59.5,29.88,West,280,0.0,6.0,67,0.00,,,0.00,Wunderground v.1.15,2013-10-02 22:59:00,
2013-10-02 19:04:00,70.8,59.7,29.88,West,280,2.0,3.0,68,0.00,,,0.00,Wunderground v.1.15,2013-10-02 23:04:00,
2013-10-02 19:09:00,70.5,59.4,29.88,West,280,0.0,3.0,68,0.00,,,0.00,Wunderground v.1.15,2013-10-02 23:09:00,
2013-10-02 19:14:00,70.2,59.6,29.88,West,280,0.0,3.0,69,0.00,,,0.00,Wunderground v.1.15,2013-10-02 23:14:00,
2013-10-02 19:19:00,69.9,59.3,29.88,West,280,0.0,3.0,69,0.00,,,0.00,Wunderground v.1.15,2013-10-02 23:19:00,
2013-10-02 19:24:00,69.6,59.4,29.88,West,280,0.0,0.0,70,0.00,,,0.00,Wunderground v.1.15,2013-10-02 23:24:00,
2013-10-02 19:29:00,69.0,59.2,29.89,West,280,0.0,0.0,71,0.00,,,0.00,Wunderground v.1.15,2013-10-02 23:29:00,
2013-10-02 19:34:00,68.5,59.1,29.89,West,280,0.0,0.0,72,0.00,,,0.00,Wunderground v.1.15,2013-10-02 23:34:00,
2013-10-02 19:39:00,68.0,59.0,29.89,West,280,0.0,0.0,73,0.00,,,0.00,Wunderground v.1.15,2013-10-02 23:39:00,
2013-10-02 19:44:00,67.5,58.9,29.89,West,280,0.0,0.0,74,0.00,,,0.00,Wunderground v.1.15,2013-10-02 23:44:00,
2013-10-02 19:49:00,67.1,58.9,29.89,West,280,0.0,0.0,75,0.00,,,0.00,Wunderground v.1.15,2013-10-02 23:49:00,
2013-10-02 19:54:00,66.7,58.5,29.90,West,280,0.0,1.0,75,0.00,,,0.00,Wunderground v.1.15,2013-10-02 23:54:00,
2013-10-02 19:59:00,66.3,58.5,29.90,West,280,0.0,1.0,76,0.00,,,0.00,Wunderground v.1.15,2013-10-02 23:59:00,
2013-10-02 20:04:00,66.0,58.6,29.90,West,280,0.0,1.0,77,0.00,,,0.00,Wunderground v.1.15,2013-10-03 00:04:00,
2013-10-02 20:09:00,65.7,58.3,29.90,West,280,0.0,1.0,77,0.00,,,0.00,Wunderground v.1.15,2013-10-03 00:09:00,
2013-10-02 20:14:00,65.4,58.4,29.90,West,280,0.0,0.0,78,0.00,,,0.00,Wunderground v.1.15,2013-10-03 00:14:00,
2013-10-02 20:19:00,65.2,58.5,29.90,West,280,0.0,1.0,79,0.00,,,0.00,Wunderground v.1.15,2013-10-03 00:19:00,
2013-10-02 20:24:00,64.9,58.2,29.90,West,280,0.0,1.0,79,0.00,,,0.00,Wunderground v.1.15,2013-10-03 00:24:00,
2013-10-02 20:29:00,64.7,58.4,29.90,West,280,0.0,1.0,80,0.00,,,0.00,Wunderground v.1.15,2013-10-03 00:29:00,
2013-10-02 20:34:00,64.4,58.1,29.91,West,280,0.0,0.0,80,0.00,,,0.00,Wunderground v.1.15,2013-10-03 00:34:00,
2013-10-02 20:39:00,64.2,57.9,29.91,West,280,0.0,1.0,80,0.00,,,0.00,Wunderground v.1.15,2013-10-03 00:39:00,
2013-10-02 20:44:00,64.1,58.1,29.91,West,279,0.0,3.0,81,0.00,,,0.00,Wunderground v.1.15,2013-10-03 00:44:00,
2013-10-02 20:49:00,64.0,58.1,29.91,SSW,202,0.0,3.0,81,0.00,,,0.00,Wunderground v.1.15,2013-10-03 00:49:00,
2013-10-02 20:54:00,64.0,58.4,29.91,SSW,202,0.0,0.0,82,0.00,,,0.00,Wunderground v.1.15,2013-10-03 00:54:00,
2013-10-02 20:59:00,63.9,58.3,29.91,SSW,202,0.0,3.0,82,0.00,,,0.00,Wunderground v.1.15,2013-10-03 00:59:00,
2013-10-02 21:04:00,63.8,58.2,29.91,SSW,202,0.0,2.0,82,0.00,,,0.00,Wunderground v.1.15,2013-10-03 01:04:00,
2013-10-02 21:09:00,63.7,58.1,29.91,WSW,242,0.0,4.0,82,0.00,,,0.00,Wunderground v.1.15,2013-10-03 01:09:00,
2013-10-02 21:14:00,63.6,58.0,29.91,WSW,242,0.0,2.0,82,0.00,,,0.00,Wunderground v.1.15,2013-10-03 01:14:00,
2013-10-02 21:19:00,63.7,58.1,29.92,WSW,242,0.0,2.0,82,0.00,,,0.00,Wunderground v.1.15,2013-10-03 01:19:00,
2013-10-02 21:24:00,63.7,58.1,29.92,WSW,242,0.0,0.0,82,0.00,,,0.00,Wunderground v.1.15,2013-10-03 01:24:00,
2013-10-02 21:29:00,63.5,57.9,29.92,WSW,242,0.0,0.0,82,0.00,,,0.00,Wunderground v.1.15,2013-10-03 01:29:00,
2013-10-02 21:34:00,63.2,57.6,29.92,WSW,242,0.0,1.0,82,0.00,,,0.00,Wunderground v.1.15,2013-10-03 01:34:00,
2013-10-02 21:39:00,62.9,57.3,29.92,WSW,242,0.0,3.0,82,0.00,,,0.00,Wunderground v.1.15,2013-10-03 01:39:00,
2013-10-02 21:44:00,62.8,57.6,29.92,WSW,242,0.0,1.0,83,0.00,,,0.00,Wunderground v.1.15,2013-10-03 01:44:00,
2013-10-02 21:49:00,62.8,57.6,29.92,SW,221,0.0,5.0,83,0.00,,,0.00,Wunderground v.1.15,2013-10-03 01:49:00,
2013-10-02 21:54:00,62.9,57.7,29.92,WSW,237,0.0,5.0,83,0.00,,,0.00,Wunderground v.1.15,2013-10-03 01:54:00,
2013-10-02 21:59:00,63.1,57.5,29.93,WSW,248,2.0,5.0,82,0.00,,,0.00,Wunderground v.1.15,2013-10-03 01:59:00,
2013-10-02 22:04:00,63.2,57.6,29.93,SW,236,6.0,6.0,82,0.00,,,0.00,Wunderground v.1.15,2013-10-03 02:04:00,
2013-10-02 22:05:00,63.3,57.7,29.93,WSW,247,2.0,6.0,82,0.00,,,0.00,Wunderground v.1.15,2013-10-03 02:05:00,
2013-10-02 22:10:00,63.5,57.6,29.93,SW,236,4.0,4.0,81,0.00,,,0.00,Wunderground v.1.15,2013-10-03 02:10:00,
2013-10-02 22:15:00,63.8,57.9,29.93,WSW,238,2.0,7.0,81,0.00,,,0.00,Wunderground v.1.15,2013-10-03 02:15:00,
2013-10-02 22:20:00,63.9,57.6,29.93,WSW,244,2.0,4.0,80,0.00,,,0.00,Wunderground v.1.15,2013-10-03 02:20:00,
2013-10-02 22:25:00,64.1,57.8,29.93,West,271,0.0,5.0,80,0.00,,,0.00,Wunderground v.1.15,2013-10-03 02:25:00,
2013-10-02 22:30:00,64.1,57.5,29.94,West,267,0.0,1.0,79,0.00,,,0.00,Wunderground v.1.15,2013-10-03 02:30:00,
2013-10-02 22:35:00,64.0,57.4,29.94,West,267,0.0,1.0,79,0.00,,,0.00,Wunderground v.1.15,2013-10-03 02:35:00,
2013-10-02 22:40:00,63.8,57.2,29.94,West,267,0.0,0.0,79,0.00,,,0.00,Wunderground v.1.15,2013-10-03 02:40:00,
2013-10-02 22:45:00,63.5,57.2,29.94,WSW,239,2.0,4.0,80,0.00,,,0.00,Wunderground v.1.15,2013-10-03 02:45:00,
2013-10-02 22:50:00,63.3,57.0,29.94,SW,236,0.0,1.0,80,0.00,,,0.00,Wunderground v.1.15,2013-10-03 02:50:00,
2013-10-02 22:55:00,63.2,56.9,29.95,SW,236,0.0,4.0,80,0.00,,,0.00,Wunderground v.1.15,2013-10-03 02:55:00,
2013-10-02 23:00:00,63.1,56.8,29.95,SW,236,0.0,0.0,80,0.00,,,0.00,Wunderground v.1.15,2013-10-03 03:00:00,
2013-10-02 23:05:00,63.0,56.7,29.95,SW,236,0.0,4.0,80,0.00,,,0.00,Wunderground v.1.15,2013-10-03 03:05:00,
2013-10-02 23:10:00,62.9,56.6,29.95,SW,236,0.0,1.0,80,0.00,,,0.00,Wunderground v.1.15,2013-10-03 03:10:00,
2013-10-02 23:15:00,62.7,56.4,29.95,SW,236,0.0,1.0,80,0.00,,,0.00,Wunderground v.1.15,2013-10-03 03:15:00,
2013-10-02 23:20:00,62.4,56.5,29.95,SW,236,0.0,0.0,81,0.00,,,0.00,Wunderground v.1.15,2013-10-03 03:20:00,
2013-10-02 23:25:00,62.1,56.2,29.95,SW,236,0.0,0.0,81,0.00,,,0.00,Wunderground v.1.15,2013-10-03 03:25:00,
2013-10-02 23:30:00,61.8,55.9,29.95,SW,236,0.0,0.0,81,0.00,,,0.00,Wunderground v.1.15,2013-10-03 03:30:00,
2013-10-02 23:35:00,61.4,55.9,29.95,SW,236,0.0,0.0,82,0.00,,,0.00,Wunderground v.1.15,2013-10-03 03:35:00,
2013-10-02 23:40:00,61.1,55.9,29.96,SW,236,0.0,0.0,83,0.00,,,0.00,Wunderground v.1.15,2013-10-03 03:40:00,
2013-10-02 23:45:00,60.8,55.6,29.96,SW,236,0.0,1.0,83,0.00,,,0.00,Wunderground v.1.15,2013-10-03 03:45:00,
2013-10-02 23:50:00,60.5,55.3,29.96,SW,236,0.0,0.0,83,0.00,,,0.00,Wunderground v.1.15,2013-10-03 03:50:00,
2013-10-02 23:55:00,60.2,55.0,29.96,SW,236,0.0,1.0,83,0.00,,,0.00,Wunderground v.1.15,2013-10-03 03:55:00,